NCAR-RAP Real-Time Weather Data

Output produced by METARs form (08 May 2021  16:32 UTC)
found at http://weather.rap.ucar.edu/surface/
 
KGGW 081602Z AUTO 11017G23KT 1/2SM SN FG VV007 01/M01 A2991 RMK AO2 P0003 T00111006
KGGW 081553Z AUTO 11017G26KT 3/4SM -SN BR SCT006 OVC011 02/00 A2991 RMK AO2 PK WND 11029/1500 RAE33SNB33 SLP139 P0010 T00170000
KGGW 081547Z AUTO 11019G28KT 1SM -SN BR SCT006 OVC011 02/00 A2990 RMK AO2 PK WND 11029/1500 RAE33SNB33 P0008
KGGW 081541Z AUTO 11021G28KT 1 3/4SM -SN BR BKN006 OVC013 02/00 A2990 RMK AO2 PK WND 11029/1500 RAE33SNB33 P0006 T00220000
KGGW 081453Z AUTO 11017G29KT 4SM -RA BR BKN008 BKN012 OVC018 03/01 A2989 RMK AO2 PK WND 12032/1409 SLP131 P0003 60011 T00280011 51014
KGGW 081421Z AUTO 10021G27KT 5SM -RA BR OVC008 03/01 A2989 RMK AO2 PK WND 12032/1409 P0001 T00330011 $
KGGW 081353Z AUTO 11019G32KT 5SM -RA OVC011 04/01 A2988 RMK AO2 PK WND 11033/1303 SLP125 P0004 T00390011 $
KGGW 081306Z AUTO 11021G33KT 4SM -RA BR BKN013 BKN024 OVC030 04/02 A2987 RMK AO2 PK WND 11033/1303 P0001 T00390017 $
KGGW 081253Z AUTO 10023G31KT 6SM -RA FEW013 BKN030 OVC038 04/02 A2987 RMK AO2 PK WND 11034/1236 SLP120 P0004 T00440017 $
KGGW 081153Z AUTO 11025G34KT 10SM -RA OVC048 05/02 A2985 RMK AO2 PK WND 11040/1122 SLP110 P0006 60009 70012 T00500017 10094 20050 53004 $
KGGW 081053Z AUTO 11024G35KT 8SM -RA BKN047 OVC060 06/02 A2982 RMK AO2 PK WND 12037/1022 SLP100 P0002 T00560017 $
KGGW 080953Z AUTO 11025G37KT 10SM -RA OVC065 07/01 A2981 RMK AO2 PK WND 11037/0945 RAB11E25B48 SLP096 P0000 T00670011 $
KGGW 080853Z AUTO 12020G28KT 10SM OVC060 08/01 A2983 RMK AO2 PK WND 09032/0811 SLP103 60001 T00830006 51017 $
KGGW 080753Z AUTO 10019G28KT 10SM BKN070 OVC090 08/02 A2982 RMK AO2 PK WND 09031/0701 SLP099 T00780017 $
KGGW 080653Z AUTO 10022G30KT 10SM OVC075 09/00 A2982 RMK AO2 PK WND 09035/0624 RAE09 SLP098 P0001 T00890000 402220072 $
KGGW 080553Z AUTO 09026G44KT 7SM RA BKN070 OVC085 09/01 A2978 RMK AO2 PK WND 08044/0547 RAB13 SLP084 P0003 60003 T00890011 10206 20089 50007 $
KGGW 080453Z AUTO 10020G30KT 10SM BKN080 BKN100 14/M06 A2985 RMK AO2 PK WND 09037/0355 SLP107 T01441056
KGGW 080353Z AUTO 09022G35KT 10SM CLR 15/M06 A2978 RMK AO2 PK WND 09040/0326 SLP084 T01501061
KGGW 080253Z AUTO 09024G35KT 10SM CLR 16/M06 A2976 RMK AO2 PK WND 08035/0253 SLP077 T01611061 56002